ULLIULOO

Guest
Details From ULLI - Saint Petersburg Pulkovo
To ULOO - PSKOV
Flight Number -
Tags generated
Created
Modified
Stats Distance 134 nm / 249 km
Max Altitude 7,600 ft / 2,316 m
Waypoints 3
Social Downloads 0
Likes 0
Share VATSIM

Download

Looking for another format? Having issues loading an existing format? Contact us
Advertisement - Login to hide

Notes

Basic altitude profile: - Ascent Rate: 2500ft/min - Ascent Speed: 250kts - Cruise Altitude: 35000ft - Cruise Speed: 420kts - Descent Rate: 1500ft/min - Descent Speed: 250kts Options: - Use NATs: yes - Use PACOTS: yes - Use low airways: yes - Use high airways: yes

Route

ULLI UBORI ULOO

ID Type Via Altitude Latitude Longitude Leg Dist Tot Dist Heading (true) Name
O ULLI APT - 0 ft / 0 m 59.80029˚ 30.26250˚ - 0 nm - Saint Petersburg Pulkovo
UBORI FIX - 7,600 ft / 2,316 m 58.31806˚ 28.89278˚ 98 nm 98 nm 206° / 205° -
O ULOO APT - 0 ft / 0 m 57.78387˚ 28.39647˚ 35 nm 134 nm 206° / 206° PSKOV

Altitude Profile

Advertisement - Login to hide

ULLI

Details ICAO ULLI (LED)
Name Saint Petersburg Pulkovo
Region Russia
Timezone Europe/Moscow (UTC+3.0)
Stats Elevation 78 ft / 24 m (AMSL)
Location 59.800292° 30.262504°
Runways 2
Magnetic Variation 10.695° E

METAR

ULLI 122200Z 18005MPS 140V220 9999 BKN009 BKN016CB OVC033 02/01 Q0991 R10R/650345 NOSIG

Decode

TAF

TAF ULLI 121959Z 1221/1321 18008G14MPS 5000 -RA BKN011 BKN020 TEMPO 1221/1304 21005G11MPS 3100 -SHRA BKN010 BKN015CB BECMG 1304/1306 23005G11MPS 6000 NSW TEMPO 1304/1312 25008G14MPS 3100 -SHSNRA BKN011 BKN015CB TEMPO 1316/1321 3100 -SHSN BLSN BKN011 BKN015CB

Decode

Departure Runways

ID Width Length Bearing (true) Bearing (mag) Surface Threshold Offset Overrun Length
10L 197 ft / 60 m 11,115 ft / 3,388 m 106.38° 95.69° Concrete 0 ft / 0 m 235 ft / 72 m
10R 197 ft / 60 m 12,365 ft / 3,769 m 106.40° 95.71° Concrete 0 ft / 0 m 220 ft / 67 m
28L 197 ft / 60 m 12,365 ft / 3,769 m 286.46° 275.77° Concrete 0 ft / 0 m 260 ft / 79 m
28R 197 ft / 60 m 11,115 ft / 3,388 m 286.44° 275.75° Concrete 0 ft / 0 m 240 ft / 73 m

ULOO

Details ICAO ULOO (PKV)
Name PSKOV
Region Russia
Timezone Europe/Moscow (UTC+3.0)
Stats Elevation 154 ft / 47 m (AMSL)
Location 57.783872° 28.396468°
Runways 2
Magnetic Variation 9.331° E

METAR

ULOO 122200Z AUTO 17006MPS 130V190 8000 // ///038/// 04/03 Q0994 RMK QFE741

Decode

TAF

Not found

Destination Runways

ID Width Length Bearing (true) Bearing (mag) Surface Threshold Offset Overrun Length
01 144 ft / 44 m 6,551 ft / 1,997 m 17.98° 8.65° Concrete 0 ft / 0 m 885 ft / 270 m
01R 144 ft / 44 m 5,656 ft / 1,724 m 18.38° 9.05° Dirt 0 ft / 0 m 0 ft / 0 m
19 144 ft / 44 m 6,551 ft / 1,997 m 197.99° 188.66° Concrete 0 ft / 0 m 150 ft / 46 m
19L 144 ft / 44 m 5,656 ft / 1,724 m 198.38° 189.05° Dirt 0 ft / 0 m 0 ft / 0 m

Popular Alternatives